createdAt,value
2023-02-19T00:00:27.500Z,53.31
2023-02-19T00:03:31.478Z,53.70
2023-02-19T00:06:46.495Z,53.31
2023-02-19T00:09:50.825Z,53.75
2023-02-19T00:12:59.727Z,54.40
2023-02-19T00:16:09.700Z,53.65
2023-02-19T00:19:23.975Z,54.01
2023-02-19T00:22:30.833Z,53.36
2023-02-19T00:25:44.529Z,54.52
2023-02-19T00:28:54.979Z,54.19
2023-02-19T00:32:04.423Z,54.16
2023-02-19T00:35:13.045Z,54.37
2023-02-19T00:38:26.928Z,54.57
2023-02-19T00:41:31.108Z,54.68
2023-02-19T00:44:34.671Z,54.64
2023-02-19T00:47:41.477Z,54.97
2023-02-19T00:50:45.986Z,55.34
2023-02-19T00:53:55.128Z,55.21
2023-02-19T00:56:59.057Z,55.40
2023-02-19T01:00:02.683Z,55.55
2023-02-19T01:03:07.205Z,55.09
2023-02-19T01:06:12.820Z,54.17
2023-02-19T01:09:22.443Z,54.50
2023-02-19T01:12:26.192Z,54.81
2023-02-19T01:15:33.610Z,54.51
2023-02-19T01:18:44.744Z,54.58
2023-02-19T01:21:50.729Z,54.81
2023-02-19T01:24:54.602Z,53.95
2023-02-19T01:28:09.266Z,54.00
2023-02-19T01:31:17.078Z,54.35
2023-02-19T01:34:34.541Z,54.00
2023-02-19T01:37:42.820Z,54.56
2023-02-19T01:41:01.374Z,54.42
2023-02-19T01:44:08.501Z,54.07
2023-02-19T01:47:13.125Z,53.59
2023-02-19T01:50:30.926Z,53.49
2023-02-19T01:53:40.558Z,53.09
2023-02-19T01:57:10.043Z,53.94
2023-02-19T02:00:25.224Z,54.03
2023-02-19T02:03:31.544Z,54.44
2023-02-19T02:06:43.872Z,54.17
2023-02-19T02:10:06.494Z,53.77
2023-02-19T02:13:10.528Z,53.18
2023-02-19T02:16:33.519Z,53.51
2023-02-19T02:19:55.166Z,53.40
2023-02-19T02:23:28.564Z,53.06
2023-02-19T02:26:35.159Z,53.60
2023-02-19T02:30:06.626Z,53.23
2023-02-19T02:33:14.984Z,53.90
2023-02-19T02:36:32.011Z,54.13
2023-02-19T02:39:39.136Z,53.20
2023-02-19T02:42:53.812Z,53.06
2023-02-19T02:45:59.853Z,53.15
2023-02-19T02:49:20.639Z,52.30
2023-02-19T02:52:43.477Z,51.38
2023-02-19T02:55:54.837Z,51.44
2023-02-19T02:59:03.147Z,51.43
2023-02-19T03:02:19.718Z,50.63
2023-02-19T03:05:46.262Z,50.41
2023-02-19T03:09:00.838Z,49.71
2023-02-19T03:12:24.302Z,49.30
2023-02-19T03:16:20.889Z,49.34
2023-02-19T03:19:35.948Z,48.62
2023-02-19T03:22:43.142Z,49.28
2023-02-19T03:26:03.990Z,50.11
2023-02-19T03:29:38.345Z,50.73
2023-02-19T03:32:50.710Z,49.60
2023-02-19T03:36:03.397Z,49.14
2023-02-19T03:39:15.138Z,50.69
2023-02-19T03:42:31.115Z,50.22
2023-02-19T03:45:51.304Z,49.37
2023-02-19T03:49:04.207Z,50.04
2023-02-19T03:52:32.679Z,49.82
2023-02-19T03:56:05.391Z,50.08
2023-02-19T03:59:29.646Z,49.49
2023-02-19T04:02:42.185Z,49.42
2023-02-19T04:05:52.856Z,48.31
2023-02-19T04:09:01.138Z,47.92
2023-02-19T04:12:07.670Z,48.91
2023-02-19T04:15:18.068Z,47.85
2023-02-19T04:18:31.683Z,47.18
2023-02-19T04:21:42.664Z,46.41
2023-02-19T04:24:51.074Z,48.13
2023-02-19T04:28:00.338Z,48.13
2023-02-19T04:31:04.221Z,48.49
2023-02-19T04:34:14.802Z,47.53
2023-02-19T04:37:18.949Z,45.99
2023-02-19T04:40:22.670Z,46.37
2023-02-19T04:43:26.570Z,46.29
2023-02-19T04:46:32.575Z,46.46
2023-02-19T04:49:36.533Z,46.51
2023-02-19T04:52:41.545Z,46.50
2023-02-19T04:55:48.559Z,46.31
2023-02-19T04:58:52.454Z,46.36
2023-02-19T05:01:57.926Z,46.84
2023-02-19T05:05:03.153Z,46.93
2023-02-19T05:08:08.897Z,47.13
2023-02-19T05:11:24.310Z,45.86
2023-02-19T05:14:28.004Z,44.91
2023-02-19T05:17:34.921Z,45.53
2023-02-19T05:20:43.969Z,45.78
2023-02-19T05:23:47.824Z,45.62
2023-02-19T05:27:01.588Z,45.58
2023-02-19T05:30:14.485Z,45.66
2023-02-19T05:33:21.552Z,45.78
2023-02-19T05:36:25.390Z,46.51
2023-02-19T05:39:29.535Z,46.00
2023-02-19T05:42:33.131Z,45.86
2023-02-19T05:45:38.168Z,45.53
2023-02-19T05:48:42.669Z,45.97
2023-02-19T05:51:46.661Z,45.12
2023-02-19T05:54:50.323Z,44.45
2023-02-19T05:57:54.064Z,44.49
2023-02-19T06:01:03.463Z,45.60
2023-02-19T06:04:11.923Z,44.72
2023-02-19T06:07:15.500Z,43.62
2023-02-19T06:10:20.985Z,43.54
2023-02-19T06:13:26.965Z,44.08
2023-02-19T06:16:33.881Z,44.96
2023-02-19T06:19:38.292Z,44.69
2023-02-19T06:22:42.239Z,44.23
2023-02-19T06:25:46.836Z,43.89
2023-02-19T06:28:53.124Z,43.54
2023-02-19T06:31:57.180Z,43.77
2023-02-19T06:35:11.361Z,43.69
2023-02-19T06:38:15.460Z,42.66
2023-02-19T06:41:20.075Z,42.74
2023-02-19T06:44:24.077Z,41.82
2023-02-19T06:47:31.978Z,42.13
2023-02-19T06:50:40.798Z,40.89
2023-02-19T06:53:45.076Z,40.83
2023-02-19T06:56:50.846Z,41.24
2023-02-19T07:00:01.607Z,41.58
2023-02-19T07:03:06.673Z,42.10
2023-02-19T07:06:23.558Z,41.20
2023-02-19T07:09:28.919Z,40.53
2023-02-19T07:12:33.444Z,39.93
2023-02-19T07:15:37.232Z,40.52
2023-02-19T07:18:41.895Z,40.57
2023-02-19T07:21:50.767Z,39.18
2023-02-19T07:24:54.343Z,39.73
2023-02-19T07:27:59.012Z,40.48
2023-02-19T07:31:05.687Z,40.46
2023-02-19T07:34:10.050Z,40.61
2023-02-19T07:37:14.773Z,40.89
2023-02-19T07:40:18.518Z,40.26
2023-02-19T07:43:25.032Z,40.32
2023-02-19T07:46:30.473Z,40.61
2023-02-19T07:49:34.698Z,40.75
2023-02-19T07:52:38.618Z,40.63
2023-02-19T07:55:44.042Z,40.68
2023-02-19T07:58:48.154Z,40.89
2023-02-19T08:02:13.333Z,39.84
2023-02-19T08:05:20.260Z,39.39
2023-02-19T08:08:24.020Z,39.42
2023-02-19T08:11:46.204Z,40.11
2023-02-19T08:14:50.832Z,40.06
2023-02-19T08:17:55.210Z,41.14
2023-02-19T08:21:00.297Z,40.08
2023-02-19T08:24:04.780Z,41.08
2023-02-19T08:27:09.760Z,41.27
2023-02-19T08:30:13.672Z,41.37
2023-02-19T08:33:20.960Z,41.85
2023-02-19T08:36:27.949Z,41.62
2023-02-19T08:39:34.403Z,42.00
2023-02-19T08:42:38.317Z,41.94
2023-02-19T08:45:56.046Z,42.41
2023-02-19T08:49:00.183Z,41.41
2023-02-19T08:52:03.952Z,41.92
2023-02-19T08:55:08.108Z,41.03
2023-02-19T08:58:23.513Z,40.63
2023-02-19T09:01:28.917Z,41.57
2023-02-19T09:04:32.629Z,40.69
2023-02-19T09:07:36.817Z,40.44
2023-02-19T09:11:05.149Z,40.94
2023-02-19T09:14:09.508Z,41.47
2023-02-19T09:17:13.680Z,41.86
2023-02-19T09:20:27.529Z,41.78
2023-02-19T09:23:35.785Z,41.54
2023-02-19T09:26:39.321Z,41.84
2023-02-19T09:29:43.024Z,41.26
2023-02-19T09:32:46.796Z,41.03
2023-02-19T09:36:00.866Z,42.69
2023-02-19T09:39:08.022Z,42.44
2023-02-19T09:42:18.203Z,41.72
2023-02-19T09:45:25.829Z,43.21
2023-02-19T09:48:34.495Z,42.20
2023-02-19T09:51:42.072Z,41.75
2023-02-19T09:54:47.692Z,41.56
2023-02-19T09:57:53.272Z,42.85
2023-02-19T10:01:01.805Z,43.59
2023-02-19T10:04:05.769Z,43.20
2023-02-19T10:07:22.120Z,42.37
2023-02-19T10:10:35.616Z,43.32
2023-02-19T10:13:43.978Z,42.67
2023-02-19T10:16:50.768Z,43.33
2023-02-19T10:19:54.986Z,43.99
2023-02-19T10:23:12.767Z,44.90
2023-02-19T10:26:16.697Z,45.71
2023-02-19T10:29:27.633Z,44.72
2023-02-19T10:32:36.035Z,46.13
2023-02-19T10:35:56.848Z,45.82
2023-02-19T10:39:23.291Z,47.55
2023-02-19T10:42:50.027Z,46.61
2023-02-19T10:45:53.846Z,47.08
2023-02-19T10:49:28.482Z,47.93
2023-02-19T10:52:36.731Z,47.65
2023-02-19T10:55:47.093Z,48.92
2023-02-19T10:59:19.721Z,48.68
2023-02-19T11:02:24.573Z,48.99
2023-02-19T11:05:28.444Z,49.32
2023-02-19T11:08:46.704Z,48.77
2023-02-19T11:11:54.224Z,48.32
2023-02-19T11:14:58.910Z,49.34
2023-02-19T11:18:14.932Z,50.13
2023-02-19T11:21:33.444Z,49.94
2023-02-19T11:24:41.014Z,49.89
2023-02-19T11:28:07.810Z,49.18
2023-02-19T11:31:20.844Z,49.15
2023-02-19T11:34:36.024Z,49.68
2023-02-19T11:37:55.984Z,50.61
2023-02-19T11:41:16.774Z,49.89
2023-02-19T11:44:30.647Z,51.28
2023-02-19T11:47:53.875Z,50.99
2023-02-19T11:51:19.227Z,50.97
2023-02-19T11:54:28.803Z,51.84
2023-02-19T11:57:45.071Z,50.76
2023-02-19T12:08:52.351Z,50.86
2023-02-19T12:12:17.486Z,51.14
2023-02-19T12:15:30.125Z,52.22
2023-02-19T12:22:54.590Z,53.10
2023-02-19T12:26:19.481Z,52.43
2023-02-19T12:29:52.452Z,52.92
2023-02-19T12:33:02.509Z,53.74
2023-02-19T12:36:18.830Z,52.50
2023-02-19T12:39:37.954Z,54.03
2023-02-19T12:43:01.130Z,53.55
2023-02-19T12:46:23.496Z,54.17
2023-02-19T12:49:42.988Z,53.65
2023-02-19T12:53:25.669Z,53.89
2023-02-19T12:56:34.924Z,54.40
2023-02-19T13:04:13.293Z,54.57
2023-02-19T13:07:29.086Z,54.29
2023-02-19T13:10:42.988Z,53.92
2023-02-19T13:14:01.033Z,54.30
2023-02-19T13:17:39.033Z,53.74
2023-02-19T13:20:49.513Z,52.86
2023-02-19T13:23:58.872Z,53.38
2023-02-19T13:27:22.584Z,54.28
2023-02-19T13:30:32.454Z,54.21
2023-02-19T13:34:00.554Z,53.66
2023-02-19T13:37:05.311Z,54.19
2023-02-19T13:40:35.414Z,54.05
2023-02-19T13:43:39.619Z,53.32
2023-02-19T13:46:45.474Z,54.29
2023-02-19T13:49:50.439Z,54.24
2023-02-19T13:52:55.725Z,54.59
2023-02-19T13:56:00.245Z,54.81
2023-02-19T13:59:13.323Z,54.14
2023-02-19T14:02:22.703Z,56.00
2023-02-19T14:13:09.654Z,55.00
2023-02-19T14:20:09.644Z,56.24
2023-02-19T14:23:24.547Z,54.50
2023-02-19T14:26:33.921Z,55.55
2023-02-19T14:29:38.083Z,55.56
2023-02-19T14:32:47.458Z,56.71
2023-02-19T14:36:01.796Z,55.78
2023-02-19T14:39:20.405Z,56.79
2023-02-19T14:42:36.681Z,56.14
2023-02-19T14:46:05.193Z,55.00
2023-02-19T14:49:19.955Z,55.25
2023-02-19T14:52:32.837Z,56.91
2023-02-19T14:55:40.889Z,57.88
2023-02-19T14:58:45.153Z,58.51
2023-02-19T15:01:57.263Z,58.19
2023-02-19T15:05:01.449Z,58.37
2023-02-19T15:08:17.928Z,60.89
2023-02-19T15:11:26.757Z,61.08
2023-02-19T15:14:32.806Z,60.13
2023-02-19T15:17:41.701Z,59.72
2023-02-19T15:20:46.354Z,59.32
2023-02-19T15:23:56.368Z,59.24
2023-02-19T15:27:20.566Z,59.43
2023-02-19T15:30:33.232Z,60.41
2023-02-19T15:33:53.396Z,59.42
2023-02-19T15:37:07.688Z,58.95
2023-02-19T15:40:15.607Z,57.86
2023-02-19T15:43:36.411Z,56.80
2023-02-19T15:46:42.891Z,57.64
2023-02-19T15:49:57.652Z,57.74
2023-02-19T15:53:24.941Z,59.29
2023-02-19T15:56:33.513Z,61.21
2023-02-19T15:59:47.569Z,62.89
2023-02-19T16:03:02.914Z,62.44
2023-02-19T16:06:15.588Z,60.99
2023-02-19T16:09:32.634Z,58.24
2023-02-19T16:12:37.155Z,61.25
2023-02-19T16:15:41.571Z,63.42
2023-02-19T16:18:58.210Z,62.45
2023-02-19T16:22:03.150Z,62.31
2023-02-19T16:25:29.828Z,62.42
2023-02-19T16:28:38.435Z,62.96
2023-02-19T16:31:51.029Z,62.67
2023-02-19T16:35:26.861Z,62.86
2023-02-19T16:38:30.699Z,64.69
2023-02-19T16:41:40.940Z,65.22
2023-02-19T16:44:46.259Z,64.44
2023-02-19T16:47:54.320Z,64.16
2023-02-19T16:51:03.414Z,63.07
2023-02-19T16:54:07.573Z,62.85
2023-02-19T16:57:11.835Z,63.36
2023-02-19T17:00:25.289Z,62.94
2023-02-19T17:03:31.092Z,63.63
2023-02-19T17:06:46.051Z,63.41
2023-02-19T17:09:58.210Z,63.88
2023-02-19T17:13:02.408Z,62.73
2023-02-19T17:16:20.248Z,60.47
2023-02-19T17:19:23.965Z,59.42
2023-02-19T17:22:28.907Z,60.83
2023-02-19T17:25:41.080Z,59.59
2023-02-19T17:28:53.018Z,59.34
2023-02-19T17:31:58.046Z,60.13
2023-02-19T17:35:01.954Z,61.74
2023-02-19T17:38:10.686Z,61.18
2023-02-19T17:41:16.683Z,62.30
2023-02-19T17:44:32.586Z,62.85
2023-02-19T17:47:37.539Z,63.71
2023-02-19T17:50:52.773Z,61.88
2023-02-19T17:54:09.442Z,63.35
2023-02-19T17:57:24.568Z,62.93
2023-02-19T18:00:35.713Z,64.01
2023-02-19T18:03:45.579Z,65.90
2023-02-19T18:06:59.501Z,66.16
2023-02-19T18:10:05.568Z,66.80
2023-02-19T18:13:19.268Z,65.91
2023-02-19T18:16:28.138Z,65.20
2023-02-19T18:19:31.803Z,64.19
2023-02-19T18:22:36.021Z,64.85
2023-02-19T18:25:45.313Z,64.88
2023-02-19T18:29:01.379Z,66.49
2023-02-19T18:32:09.850Z,65.58
2023-02-19T18:35:16.769Z,66.30
2023-02-19T18:38:26.307Z,66.68
2023-02-19T18:41:32.304Z,68.25
2023-02-19T18:44:36.487Z,69.19
2023-02-19T18:47:40.140Z,67.09
2023-02-19T18:50:43.911Z,67.20
2023-02-19T18:53:58.962Z,68.04
2023-02-19T18:57:09.288Z,69.16
2023-02-19T19:00:27.480Z,69.10
2023-02-19T19:03:36.360Z,69.94
2023-02-19T19:06:50.982Z,69.01
2023-02-19T19:10:00.503Z,68.97
2023-02-19T19:13:07.027Z,68.61
2023-02-19T19:16:10.960Z,69.27
2023-02-19T19:19:15.919Z,70.39
2023-02-19T19:22:23.168Z,69.92
2023-02-19T19:25:27.132Z,71.10
2023-02-19T19:28:32.322Z,72.05
2023-02-19T19:31:46.792Z,67.89
2023-02-19T19:34:52.241Z,68.60
2023-02-19T19:37:55.985Z,67.81
2023-02-19T19:41:00.094Z,68.99
2023-02-19T19:44:13.873Z,67.48
2023-02-19T19:47:18.236Z,66.73
2023-02-19T19:50:22.182Z,66.89
2023-02-19T19:53:26.684Z,66.34
2023-02-19T19:56:30.751Z,67.47
2023-02-19T19:59:34.771Z,65.69
2023-02-19T20:02:43.938Z,64.06
2023-02-19T20:05:58.316Z,64.40
2023-02-19T20:09:02.299Z,63.32
2023-02-19T20:12:06.914Z,63.80
2023-02-19T20:15:11.496Z,64.33
2023-02-19T20:18:15.643Z,65.43
2023-02-19T20:21:23.761Z,66.22
2023-02-19T20:24:32.040Z,65.44
2023-02-19T20:27:36.073Z,65.97
2023-02-19T20:30:40.190Z,64.73
2023-02-19T20:33:44.395Z,62.61
2023-02-19T20:36:49.672Z,61.81
2023-02-19T20:39:54.894Z,62.67
2023-02-19T20:43:09.310Z,62.41
2023-02-19T20:46:23.162Z,61.83
2023-02-19T20:49:30.418Z,61.51
2023-02-19T20:52:45.425Z,62.30
2023-02-19T20:55:56.653Z,64.49
2023-02-19T20:59:00.599Z,64.33
2023-02-19T21:02:13.104Z,64.70
2023-02-19T21:05:20.295Z,66.21
2023-02-19T21:08:29.308Z,67.45
2023-02-19T21:11:35.256Z,68.18
2023-02-19T21:14:41.280Z,69.14
2023-02-19T21:17:49.620Z,69.80
2023-02-19T21:20:57.780Z,70.07
2023-02-19T21:24:02.936Z,69.00
2023-02-19T21:27:06.805Z,69.97
2023-02-19T21:30:10.948Z,70.72
2023-02-19T21:33:20.173Z,70.10
2023-02-19T21:36:34.935Z,69.90
2023-02-19T21:39:43.884Z,70.27
2023-02-19T21:42:48.047Z,69.82
2023-02-19T21:45:52.159Z,70.85
2023-02-19T21:48:57.286Z,70.15
2023-02-19T21:52:08.103Z,68.69
2023-02-19T21:55:16.879Z,68.48
2023-02-19T21:58:21.062Z,68.82
2023-02-19T22:01:31.006Z,69.03
2023-02-19T22:04:35.910Z,69.42
2023-02-19T22:07:50.557Z,70.57
2023-02-19T22:10:54.698Z,69.62
2023-02-19T22:14:03.525Z,68.91
2023-02-19T22:17:17.379Z,70.75
2023-02-19T22:20:22.121Z,69.79
2023-02-19T22:23:28.469Z,69.58
2023-02-19T22:26:35.114Z,68.75
2023-02-19T22:29:49.749Z,70.29
2023-02-19T22:32:53.332Z,70.52
2023-02-19T22:35:57.550Z,71.65
2023-02-19T22:39:02.869Z,72.02
2023-02-19T22:42:17.023Z,70.93
2023-02-19T22:45:20.721Z,70.29
2023-02-19T22:48:33.006Z,71.44
2023-02-19T22:51:37.639Z,69.13
2023-02-19T22:54:47.267Z,69.96
2023-02-19T22:58:01.307Z,68.33
2023-02-19T23:01:05.798Z,68.41
2023-02-19T23:04:21.806Z,68.53
2023-02-19T23:07:26.238Z,67.69
2023-02-19T23:10:35.306Z,67.02
2023-02-19T23:13:42.669Z,64.65
2023-02-19T23:16:46.970Z,65.06
2023-02-19T23:19:55.906Z,65.39
2023-02-19T23:23:02.167Z,64.78
2023-02-19T23:26:05.903Z,65.31
2023-02-19T23:29:09.984Z,66.35
2023-02-19T23:32:21.397Z,65.67
2023-02-19T23:35:25.295Z,65.68
2023-02-19T23:38:29.891Z,64.55
2023-02-19T23:41:40.341Z,64.28
2023-02-19T23:44:47.889Z,63.92
2023-02-19T23:47:53.497Z,63.09
2023-02-19T23:51:02.248Z,62.92
2023-02-19T23:54:07.457Z,62.98
2023-02-19T23:57:19.808Z,62.89
